createdAt,value
2017-12-14T00:00:23.919Z,5.10
2017-12-14T00:02:50.672Z,4.72
2017-12-14T00:05:18.059Z,5.28
2017-12-14T00:07:49.262Z,4.43
2017-12-14T00:10:17.522Z,4.50
2017-12-14T00:12:45.899Z,5.07
2017-12-14T00:15:12.888Z,4.40
2017-12-14T00:17:39.615Z,4.35
2017-12-14T00:20:07.990Z,4.32
2017-12-14T00:22:36.853Z,5.20
2017-12-14T00:25:03.181Z,5.57
2017-12-14T00:27:31.115Z,4.90
2017-12-14T00:29:58.282Z,5.07
2017-12-14T00:32:27.405Z,5.07
2017-12-14T00:34:54.944Z,4.90
2017-12-14T00:37:22.705Z,5.00
2017-12-14T00:39:49.439Z,4.80
2017-12-14T00:42:20.925Z,4.22
2017-12-14T00:44:49.455Z,4.87
2017-12-14T00:47:17.857Z,5.20
2017-12-14T00:49:46.132Z,5.28
2017-12-14T00:52:15.280Z,5.15
2017-12-14T00:54:42.879Z,4.93
2017-12-14T00:57:10.678Z,4.90
2017-12-14T00:59:39.242Z,5.60
2017-12-14T01:02:06.989Z,4.70
2017-12-14T01:04:37.454Z,4.00
2017-12-14T01:07:05.604Z,5.03
2017-12-14T01:09:34.684Z,4.35
2017-12-14T01:12:02.306Z,4.30
2017-12-14T01:14:35.205Z,4.50
2017-12-14T01:17:03.394Z,4.37
2017-12-14T01:19:34.883Z,4.55
2017-12-14T01:22:04.301Z,3.87
2017-12-14T01:24:31.259Z,5.72
2017-12-14T01:26:58.694Z,3.70
2017-12-14T01:29:25.415Z,3.78
2017-12-14T01:31:52.580Z,3.45
2017-12-14T01:34:24.703Z,4.28
2017-12-14T01:36:51.948Z,3.78
2017-12-14T01:39:20.409Z,3.35
2017-12-14T01:41:47.124Z,3.85
2017-12-14T01:44:16.027Z,3.72
2017-12-14T01:49:19.194Z,3.40
2017-12-14T01:51:49.284Z,4.00
2017-12-14T01:54:15.982Z,3.60
2017-12-14T01:56:48.098Z,3.72
2017-12-14T02:01:54.949Z,3.75
2017-12-14T02:04:24.131Z,3.90
2017-12-14T02:06:51.692Z,3.80
2017-12-14T02:09:23.556Z,5.15
2017-12-14T02:11:51.793Z,3.50
2017-12-14T02:14:18.556Z,4.40
2017-12-14T02:16:48.481Z,3.80
2017-12-14T02:19:16.452Z,4.35
2017-12-14T02:21:44.521Z,3.97
2017-12-14T02:24:12.273Z,4.18
2017-12-14T02:26:44.105Z,4.80
2017-12-14T02:31:45.113Z,5.45
2017-12-14T02:34:11.851Z,4.80
2017-12-14T02:36:41.714Z,7.05
2017-12-14T02:39:10.681Z,5.30
2017-12-14T02:41:37.735Z,5.00
2017-12-14T02:44:05.298Z,4.65
2017-12-14T02:46:32.820Z,4.75
2017-12-14T02:48:59.533Z,4.90
2017-12-14T02:51:26.984Z,5.15
2017-12-14T02:53:53.676Z,4.50
2017-12-14T02:56:21.771Z,5.18
2017-12-14T03:01:22.149Z,4.50
2017-12-14T03:03:48.847Z,4.60
2017-12-14T03:06:15.595Z,4.75
2017-12-14T03:08:42.996Z,3.87
2017-12-14T03:11:10.575Z,4.12
2017-12-14T03:13:37.980Z,3.60
2017-12-14T03:16:06.348Z,3.53
2017-12-14T03:18:33.825Z,2.45
2017-12-14T03:21:01.735Z,2.55
2017-12-14T03:23:29.061Z,3.22
2017-12-14T03:25:57.833Z,2.60
2017-12-14T03:28:25.420Z,2.62
2017-12-14T03:30:52.181Z,2.55
2017-12-14T03:33:18.907Z,2.87
2017-12-14T03:35:49.921Z,2.35
2017-12-14T03:38:21.964Z,2.03
2017-12-14T03:40:49.864Z,2.65
2017-12-14T03:43:16.580Z,2.50
2017-12-14T03:45:43.313Z,2.15
2017-12-14T03:48:10.039Z,2.25
2017-12-14T03:50:37.219Z,2.80
2017-12-14T03:53:04.740Z,2.33
2017-12-14T03:55:33.689Z,1.83
2017-12-14T03:58:02.551Z,2.22
2017-12-14T04:00:33.205Z,2.08
2017-12-14T04:02:59.969Z,2.30
2017-12-14T04:05:29.548Z,2.12
2017-12-14T04:07:57.462Z,2.33
2017-12-14T04:10:24.711Z,1.83
2017-12-14T04:12:52.331Z,1.90
2017-12-14T04:15:22.859Z,2.62
2017-12-14T04:17:50.162Z,2.08
2017-12-14T04:20:17.378Z,2.20
2017-12-14T04:22:45.052Z,2.10
2017-12-14T04:25:12.220Z,1.95
2017-12-14T04:27:39.301Z,2.00
2017-12-14T04:30:07.480Z,1.95
2017-12-14T04:32:35.699Z,2.67
2017-12-14T04:35:03.713Z,2.08
2017-12-14T04:37:35.701Z,1.75
2017-12-14T04:40:06.115Z,2.35
2017-12-14T04:42:38.759Z,2.50
2017-12-14T04:45:07.659Z,2.30
2017-12-14T04:47:39.119Z,2.85
2017-12-14T04:50:05.814Z,2.42
2017-12-14T04:52:33.320Z,2.17
2017-12-14T04:55:00.040Z,2.87
2017-12-14T04:57:27.028Z,2.53
2017-12-14T04:59:53.754Z,1.85
2017-12-14T05:02:24.664Z,1.23
2017-12-14T05:04:52.699Z,0.98
2017-12-14T05:07:19.632Z,1.00
2017-12-14T05:09:46.339Z,1.10
2017-12-14T05:12:16.301Z,1.10
2017-12-14T05:14:43.520Z,1.10
2017-12-14T05:17:12.837Z,2.22
2017-12-14T05:19:41.657Z,3.22
2017-12-14T05:22:08.356Z,6.40
2017-12-14T05:24:36.500Z,9.27
2017-12-14T05:27:05.299Z,4.97
2017-12-14T05:29:33.977Z,3.05
2017-12-14T05:32:07.243Z,2.75
2017-12-14T05:34:36.371Z,2.00
2017-12-14T05:37:04.816Z,1.92
2017-12-14T05:39:33.130Z,1.60
2017-12-14T05:42:03.370Z,1.80
2017-12-14T05:44:30.140Z,1.80
2017-12-14T05:46:57.772Z,2.53
2017-12-14T05:49:25.805Z,1.92
2017-12-14T05:51:52.560Z,2.05
2017-12-14T05:54:19.759Z,2.30
2017-12-14T05:56:47.369Z,2.47
2017-12-14T05:59:15.189Z,2.92
2017-12-14T06:01:41.918Z,2.97
2017-12-14T06:04:08.625Z,4.20
2017-12-14T06:06:36.158Z,3.95
2017-12-14T06:09:02.868Z,5.43
2017-12-14T06:11:30.539Z,5.75
2017-12-14T06:13:57.351Z,7.35
2017-12-14T06:16:26.263Z,5.90
2017-12-14T06:18:57.456Z,7.00
2017-12-14T06:21:24.227Z,6.43
2017-12-14T06:23:51.703Z,7.35
2017-12-14T06:26:18.760Z,9.15
2017-12-14T06:28:46.332Z,8.75
2017-12-14T06:31:14.191Z,9.18
2017-12-14T06:33:42.215Z,8.55
2017-12-14T06:36:11.734Z,7.28
2017-12-14T06:38:39.499Z,8.05
2017-12-14T06:41:07.479Z,7.68
2017-12-14T06:43:36.023Z,6.82
2017-12-14T06:46:02.916Z,6.30
2017-12-14T06:48:29.645Z,6.97
2017-12-14T06:50:56.347Z,6.53
2017-12-14T06:53:23.051Z,5.82
2017-12-14T06:55:49.735Z,5.78
2017-12-14T06:58:16.410Z,5.32
2017-12-14T07:00:43.112Z,5.40
2017-12-14T07:03:15.704Z,5.85
2017-12-14T07:05:42.406Z,5.20
2017-12-14T07:08:09.087Z,5.90
2017-12-14T07:10:35.793Z,5.43
2017-12-14T07:13:02.473Z,5.00
2017-12-14T07:15:29.180Z,6.00
2017-12-14T07:17:55.868Z,6.20
2017-12-14T07:20:22.575Z,5.45
2017-12-14T07:22:49.251Z,6.45
2017-12-14T07:25:15.955Z,7.20
2017-12-14T07:27:42.628Z,7.55
2017-12-14T07:30:09.301Z,8.35
2017-12-14T07:32:36.002Z,8.15
2017-12-14T07:35:02.684Z,7.43
2017-12-14T07:37:29.397Z,6.72
2017-12-14T07:39:56.076Z,7.87
2017-12-14T07:42:28.668Z,6.60
2017-12-14T07:45:01.292Z,7.30
2017-12-14T07:47:31.779Z,6.03
2017-12-14T07:49:58.454Z,5.85
2017-12-14T07:52:25.272Z,6.78
2017-12-14T07:54:51.960Z,6.55
2017-12-14T07:57:18.671Z,7.43
2017-12-14T07:59:45.352Z,6.85
2017-12-14T08:02:12.022Z,6.28
2017-12-14T08:04:38.944Z,7.53
2017-12-14T08:07:05.628Z,6.28
2017-12-14T08:09:32.338Z,7.60
2017-12-14T08:11:59.858Z,6.95
2017-12-14T08:14:27.075Z,5.90
2017-12-14T08:16:53.775Z,6.68
2017-12-14T08:19:20.500Z,6.97
2017-12-14T08:21:47.196Z,5.60
2017-12-14T08:24:13.905Z,7.32
2017-12-14T08:26:40.594Z,6.78
2017-12-14T08:29:07.295Z,5.90
2017-12-14T08:31:33.983Z,6.75
2017-12-14T08:34:00.664Z,5.30
2017-12-14T08:36:27.379Z,5.70
2017-12-14T08:38:54.066Z,6.20
2017-12-14T08:41:20.787Z,6.47
2017-12-14T08:43:47.485Z,6.37
2017-12-14T08:46:14.195Z,6.78
2017-12-14T08:48:40.875Z,7.32
2017-12-14T08:51:07.581Z,7.00
2017-12-14T08:53:34.259Z,8.15
2017-12-14T08:56:01.733Z,9.48
2017-12-14T08:58:28.430Z,9.18
2017-12-14T09:00:55.149Z,10.18
2017-12-14T09:03:21.823Z,8.63
2017-12-14T09:05:48.516Z,10.57
2017-12-14T09:08:15.230Z,9.52
2017-12-14T09:10:41.916Z,7.75
2017-12-14T09:13:08.667Z,7.25
2017-12-14T09:15:35.350Z,7.47
2017-12-14T09:18:02.061Z,6.60
2017-12-14T09:20:28.758Z,7.50
2017-12-14T09:22:55.461Z,6.45
2017-12-14T09:25:22.151Z,6.50
2017-12-14T09:27:48.863Z,6.85
2017-12-14T09:30:15.543Z,6.90
2017-12-14T09:32:42.257Z,5.93
2017-12-14T09:35:08.956Z,6.03
2017-12-14T09:37:35.792Z,6.78
2017-12-14T09:40:02.492Z,5.57
2017-12-14T09:42:29.172Z,4.80
2017-12-14T09:44:55.884Z,4.55
2017-12-14T09:47:22.565Z,4.22
2017-12-14T09:49:49.277Z,3.70
2017-12-14T09:52:15.956Z,3.75
2017-12-14T09:54:42.656Z,3.83
2017-12-14T09:57:09.567Z,3.12
2017-12-14T09:59:37.126Z,2.80
2017-12-14T10:02:04.092Z,3.58
2017-12-14T10:04:30.775Z,2.90
2017-12-14T10:06:57.456Z,2.47
2017-12-14T10:09:24.176Z,2.00
2017-12-14T10:11:50.890Z,2.10
2017-12-14T10:14:18.505Z,2.50
2017-12-14T10:16:45.224Z,2.00
2017-12-14T10:19:11.917Z,2.30
2017-12-14T10:21:38.626Z,2.50
2017-12-14T10:24:05.327Z,2.58
2017-12-14T10:26:32.387Z,2.03
2017-12-14T10:28:59.075Z,1.60
2017-12-14T10:31:25.771Z,2.33
2017-12-14T10:33:52.683Z,1.80
2017-12-14T10:36:19.387Z,2.53
2017-12-14T10:38:46.064Z,2.80
2017-12-14T10:41:12.743Z,2.35
2017-12-14T10:43:39.672Z,2.25
2017-12-14T10:46:06.355Z,1.90
2017-12-14T10:48:33.065Z,2.60
2017-12-14T10:51:00.166Z,2.37
2017-12-14T10:53:26.837Z,2.70
2017-12-14T10:55:53.904Z,1.77
2017-12-14T10:58:20.655Z,2.40
2017-12-14T11:00:53.222Z,2.17
2017-12-14T11:03:19.936Z,3.65
2017-12-14T11:05:53.308Z,2.95
2017-12-14T11:08:20.096Z,3.30
2017-12-14T11:10:46.883Z,1.98
2017-12-14T11:13:13.876Z,2.50
2017-12-14T11:15:41.127Z,2.90
2017-12-14T11:18:11.259Z,2.97
2017-12-14T11:20:39.711Z,2.95
2017-12-14T11:23:08.870Z,2.53
2017-12-14T11:25:38.205Z,2.42
2017-12-14T11:28:04.937Z,2.45
2017-12-14T11:30:32.718Z,2.67
2017-12-14T11:33:03.859Z,3.30
2017-12-14T11:35:35.925Z,3.67
2017-12-14T11:40:39.396Z,2.72
2017-12-14T11:43:07.642Z,3.47
2017-12-14T11:45:36.212Z,4.55
2017-12-14T11:48:05.092Z,3.58
2017-12-14T11:50:32.644Z,3.30
2017-12-14T11:52:59.597Z,3.20
2017-12-14T11:55:27.106Z,3.53
2017-12-14T11:57:53.855Z,4.45
2017-12-14T12:00:22.731Z,3.90
2017-12-14T12:02:52.882Z,2.00
2017-12-14T12:05:20.828Z,3.58
2017-12-14T12:07:47.623Z,2.10
2017-12-14T12:10:15.307Z,1.90
2017-12-14T12:15:17.435Z,3.10
2017-12-14T12:17:44.155Z,7.68
2017-12-14T12:20:14.330Z,16.73
2017-12-14T12:22:45.680Z,18.12
2017-12-14T12:25:13.987Z,15.70
2017-12-14T12:27:43.596Z,8.40
2017-12-14T12:30:13.527Z,3.50
2017-12-14T12:32:41.751Z,4.45
2017-12-14T12:35:09.384Z,3.20
2017-12-14T12:37:38.367Z,2.40
2017-12-14T12:40:05.746Z,1.50
2017-12-14T12:42:33.331Z,1.85
2017-12-14T12:45:02.698Z,2.28
2017-12-14T12:47:29.408Z,1.85
2017-12-14T12:49:57.799Z,2.20
2017-12-14T12:52:24.596Z,2.70
2017-12-14T12:54:51.952Z,2.83
2017-12-14T12:57:23.053Z,2.25
2017-12-14T12:59:51.088Z,2.62
2017-12-14T13:02:17.779Z,3.10
2017-12-14T13:04:45.320Z,2.70
2017-12-14T13:07:12.896Z,2.80
2017-12-14T13:09:41.142Z,2.85
2017-12-14T13:12:08.746Z,3.30
2017-12-14T13:14:35.495Z,2.53
2017-12-14T13:17:04.129Z,3.10
2017-12-14T13:19:30.818Z,2.55
2017-12-14T13:21:57.535Z,2.90
2017-12-14T13:24:24.216Z,2.83
2017-12-14T13:26:50.929Z,2.83
2017-12-14T13:29:17.621Z,2.97
2017-12-14T13:31:44.326Z,3.75
2017-12-14T13:34:11.938Z,3.12
2017-12-14T13:36:38.656Z,2.62
2017-12-14T13:39:05.339Z,3.15
2017-12-14T13:41:32.056Z,2.87
2017-12-14T13:46:40.216Z,2.40
2017-12-14T13:49:06.961Z,2.78
2017-12-14T13:51:33.739Z,2.58
2017-12-14T13:54:00.461Z,2.70
2017-12-14T13:56:27.156Z,3.12
2017-12-14T13:58:53.885Z,2.95
2017-12-14T14:01:21.308Z,2.50
2017-12-14T14:03:48.021Z,3.05
2017-12-14T14:06:14.719Z,3.50
2017-12-14T14:08:41.424Z,3.20
2017-12-14T14:11:10.767Z,2.10
2017-12-14T14:13:37.481Z,2.47
2017-12-14T14:16:04.167Z,3.03
2017-12-14T14:18:30.887Z,2.35
2017-12-14T14:20:57.580Z,2.40
2017-12-14T14:23:24.259Z,2.20
2017-12-14T14:25:51.195Z,2.65
2017-12-14T14:28:17.879Z,1.92
2017-12-14T14:30:44.589Z,2.00
2017-12-14T14:33:11.288Z,1.95
2017-12-14T14:35:38.000Z,2.47
2017-12-14T14:38:04.688Z,2.22
2017-12-14T14:40:31.397Z,1.98
2017-12-14T14:42:58.090Z,2.08
2017-12-14T14:45:24.796Z,2.20
2017-12-14T14:47:51.484Z,1.77
2017-12-14T14:50:18.187Z,2.17
2017-12-14T14:52:44.867Z,1.90
2017-12-14T14:55:11.568Z,2.00
2017-12-14T14:57:38.267Z,1.73
2017-12-14T15:00:04.944Z,1.90
2017-12-14T15:02:31.643Z,1.62
2017-12-14T15:04:58.324Z,1.70
2017-12-14T15:07:25.025Z,1.98
2017-12-14T15:09:51.716Z,2.03
2017-12-14T15:12:19.649Z,2.40
2017-12-14T15:14:46.332Z,1.90
2017-12-14T15:17:13.035Z,1.80
2017-12-14T15:19:39.723Z,1.90
2017-12-14T15:22:06.435Z,1.33
2017-12-14T15:24:33.122Z,1.70
2017-12-14T15:26:59.800Z,1.83
2017-12-14T15:29:26.520Z,2.15
2017-12-14T15:31:53.199Z,1.77
2017-12-14T15:34:19.916Z,1.98
2017-12-14T15:36:46.621Z,1.50
2017-12-14T15:39:13.323Z,1.33
2017-12-14T15:41:40.017Z,1.90
2017-12-14T15:44:06.727Z,1.90
2017-12-14T15:46:33.407Z,1.60
2017-12-14T15:49:00.112Z,1.62
2017-12-14T15:51:26.791Z,1.80
2017-12-14T15:53:53.500Z,1.80
2017-12-14T15:56:20.183Z,2.00
2017-12-14T15:58:47.919Z,2.55
2017-12-14T16:01:15.149Z,2.37
2017-12-14T16:03:42.616Z,1.73
2017-12-14T16:06:09.295Z,1.98
2017-12-14T16:08:36.008Z,1.80
2017-12-14T16:11:02.691Z,1.85
2017-12-14T16:13:29.403Z,2.12
2017-12-14T16:15:56.085Z,2.45
2017-12-14T16:18:22.795Z,1.90
2017-12-14T16:20:49.475Z,1.70
2017-12-14T16:23:16.168Z,1.80
2017-12-14T16:25:43.817Z,2.03
2017-12-14T16:28:10.500Z,2.58
2017-12-14T16:30:37.208Z,3.45
2017-12-14T16:33:05.000Z,2.05
2017-12-14T16:35:32.841Z,2.22
2017-12-14T16:37:59.523Z,2.40
2017-12-14T16:40:26.226Z,2.62
2017-12-14T16:42:52.921Z,2.03
2017-12-14T16:45:19.664Z,2.12
2017-12-14T16:47:46.339Z,2.33
2017-12-14T16:50:13.061Z,2.40
2017-12-14T16:52:39.749Z,2.45
2017-12-14T16:55:06.423Z,2.80
2017-12-14T16:57:33.367Z,2.45
2017-12-14T17:00:00.062Z,2.75
2017-12-14T17:02:26.821Z,4.57
2017-12-14T17:04:54.439Z,2.65
2017-12-14T17:07:21.366Z,2.65
2017-12-14T17:09:48.280Z,2.55
2017-12-14T17:12:15.228Z,2.40
2017-12-14T17:14:42.275Z,2.20
2017-12-14T17:17:08.983Z,2.50
2017-12-14T17:19:36.034Z,2.62
2017-12-14T17:22:02.747Z,2.37
2017-12-14T17:24:29.423Z,2.40
2017-12-14T17:26:56.186Z,2.92
2017-12-14T17:29:22.955Z,2.85
2017-12-14T17:31:49.633Z,3.20
2017-12-14T17:34:16.335Z,2.40
2017-12-14T17:36:43.016Z,2.80
2017-12-14T17:39:09.719Z,3.30
2017-12-14T17:41:36.391Z,2.87
2017-12-14T17:44:03.091Z,3.25
2017-12-14T17:46:29.782Z,3.45
2017-12-14T17:48:56.503Z,4.30
2017-12-14T17:51:23.181Z,4.40
2017-12-14T17:53:49.867Z,4.53
2017-12-14T17:56:16.608Z,3.83
2017-12-14T17:58:43.287Z,3.53
2017-12-14T18:01:10.061Z,5.18
2017-12-14T18:03:37.610Z,5.35
2017-12-14T18:06:04.316Z,4.30
2017-12-14T18:08:31.000Z,5.10
2017-12-14T18:10:57.940Z,5.53
2017-12-14T18:13:26.761Z,4.70
2017-12-14T18:15:53.898Z,5.43
2017-12-14T18:18:22.954Z,5.28
2017-12-14T18:20:50.656Z,5.60
2017-12-14T18:23:18.338Z,5.12
2017-12-14T18:25:48.628Z,5.15
2017-12-14T18:28:15.343Z,5.82
2017-12-14T18:30:44.835Z,6.10
2017-12-14T18:33:12.970Z,7.00
2017-12-14T18:35:44.766Z,6.55
2017-12-14T18:40:45.624Z,6.15
2017-12-14T18:43:17.504Z,7.15
2017-12-14T18:45:50.272Z,7.05
2017-12-14T18:48:21.151Z,7.85
2017-12-14T18:50:59.842Z,7.30
2017-12-14T18:56:00.718Z,8.73
2017-12-14T18:58:28.870Z,7.80
2017-12-14T19:00:56.761Z,9.05
2017-12-14T19:03:24.106Z,6.90
2017-12-14T19:05:51.848Z,6.15
2017-12-14T19:08:29.299Z,6.65
2017-12-14T19:11:00.012Z,7.68
2017-12-14T19:13:27.862Z,6.25
2017-12-14T19:15:57.431Z,7.28
2017-12-14T19:18:25.057Z,7.45
2017-12-14T19:20:52.131Z,7.22
2017-12-14T19:23:21.154Z,7.30
2017-12-14T19:25:49.719Z,6.53
2017-12-14T19:28:16.914Z,6.57
2017-12-14T19:30:44.050Z,6.90
2017-12-14T19:33:15.362Z,6.15
2017-12-14T19:35:44.131Z,5.97
2017-12-14T19:38:12.303Z,6.25
2017-12-14T19:40:39.966Z,6.85
2017-12-14T19:43:08.962Z,6.60
2017-12-14T19:45:44.356Z,7.00
2017-12-14T19:48:14.284Z,7.20
2017-12-14T19:50:41.962Z,7.03
2017-12-14T19:53:08.703Z,6.80
2017-12-14T19:55:43.216Z,6.70
2017-12-14T19:58:09.976Z,7.20
2017-12-14T20:00:38.881Z,5.55
2017-12-14T20:03:07.926Z,5.68
2017-12-14T20:05:34.680Z,4.20
2017-12-14T20:08:09.544Z,5.15
2017-12-14T20:10:39.048Z,5.03
2017-12-14T20:13:07.697Z,4.78
2017-12-14T20:15:34.647Z,4.78
2017-12-14T20:18:04.544Z,4.45
2017-12-14T20:20:33.040Z,4.60
2017-12-14T20:23:00.190Z,5.00
2017-12-14T20:25:29.043Z,4.30
2017-12-14T20:27:55.766Z,4.85
2017-12-14T20:30:23.773Z,7.05
2017-12-14T20:32:50.458Z,4.65
2017-12-14T20:35:17.684Z,4.82
2017-12-14T20:37:44.622Z,4.65
2017-12-14T20:40:11.395Z,4.37
2017-12-14T20:42:40.600Z,4.87
2017-12-14T20:45:07.655Z,4.37
2017-12-14T20:47:34.421Z,4.90
2017-12-14T20:50:05.489Z,4.93
2017-12-14T20:52:32.436Z,4.43
2017-12-14T20:55:00.246Z,3.67
2017-12-14T20:57:28.525Z,3.90
2017-12-14T20:59:55.880Z,4.62
2017-12-14T21:02:22.694Z,4.12
2017-12-14T21:04:49.686Z,4.65
2017-12-14T21:07:22.944Z,4.20
2017-12-14T21:09:51.462Z,4.00
2017-12-14T21:12:18.752Z,5.07
2017-12-14T21:14:45.894Z,5.18
2017-12-14T21:17:25.052Z,5.05
2017-12-14T21:20:03.814Z,4.35
2017-12-14T21:22:33.640Z,4.53
2017-12-14T21:25:02.532Z,5.15
2017-12-14T21:27:29.667Z,4.60
2017-12-14T21:30:00.502Z,5.37
2017-12-14T21:32:28.358Z,5.70
2017-12-14T21:34:58.004Z,4.95
2017-12-14T21:37:30.183Z,5.62
2017-12-14T21:39:57.958Z,5.18
2017-12-14T21:42:29.656Z,5.35
2017-12-14T21:45:06.816Z,4.37
2017-12-14T21:47:38.613Z,4.95
2017-12-14T21:50:07.126Z,4.37
2017-12-14T21:52:33.867Z,5.25
2017-12-14T21:55:02.015Z,4.20
2017-12-14T21:57:28.782Z,4.62
2017-12-14T22:02:30.364Z,4.90
2017-12-14T22:05:01.403Z,4.65
2017-12-14T22:07:28.495Z,4.25
2017-12-14T22:09:55.316Z,3.87
2017-12-14T22:12:26.452Z,4.25
2017-12-14T22:14:55.718Z,4.93
2017-12-14T22:17:23.893Z,4.62
2017-12-14T22:19:51.101Z,4.97
2017-12-14T22:22:18.535Z,4.72
2017-12-14T22:24:45.988Z,4.55
2017-12-14T22:27:14.916Z,3.90
2017-12-14T22:29:41.896Z,4.40
2017-12-14T22:32:08.704Z,3.78
2017-12-14T22:34:36.013Z,3.30
2017-12-14T22:37:03.484Z,3.87
2017-12-14T22:39:30.511Z,3.75
2017-12-14T22:42:00.260Z,3.83
2017-12-14T22:44:29.156Z,4.10
2017-12-14T22:46:56.308Z,3.25
2017-12-14T22:49:23.151Z,3.83
2017-12-14T22:51:50.323Z,3.00
